Terminal Aerodrome Forecast
Issued by NWS Nashville, TN

Home | Current Version | Previous Version | Text Only | Print | Product List | Glossary On
Versions: 1 2 3 4 5 6 7 8 9 10 11 12 13 14 15 16 17 18 19 20 21 22 23 24 25 26 27 28 29 30 31 32 33 34
000
FTUS44 KOHX 291000 AAC
TAFCSV
TAF AMD
KCSV 291001Z 2910/3006 17004KT 5SM BR SCT006 BKN035
      TEMPO 2910/2913 2SM BR BKN005 OVC020
     FM291400 18004KT P6SM BKN030 BKN250
     FM291900 19007KT P6SM VCTS BKN050CB BKN100 BKN250
     FM300000 18004KT P6SM BKN100 BKN250=

USA.gov is the U.S. government's official web portal to all federal, state and local government web resources and services.